createdAt,value
2023-10-02T00:00:52.007Z,84.47
2023-10-02T00:01:52.343Z,84.57
2023-10-02T00:02:51.469Z,84.67
2023-10-02T00:03:52.474Z,84.87
2023-10-02T00:04:51.708Z,84.97
2023-10-02T00:05:52.728Z,85.17
2023-10-02T00:06:50.849Z,85.28
2023-10-02T00:07:51.019Z,85.28
2023-10-02T00:08:51.160Z,85.38
2023-10-02T00:09:51.222Z,85.28
2023-10-02T00:10:51.392Z,85.38
2023-10-02T00:11:51.471Z,85.62
2023-10-02T00:12:51.577Z,85.72
2023-10-02T00:13:50.683Z,85.93
2023-10-02T00:14:50.821Z,86.13
2023-10-02T00:15:50.964Z,86.22
2023-10-02T00:16:51.149Z,86.33
2023-10-02T00:17:52.229Z,86.67
2023-10-02T00:18:51.359Z,86.87
2023-10-02T00:19:52.818Z,86.98
2023-10-02T00:20:50.646Z,87.08
2023-10-02T00:21:50.752Z,87.28
2023-10-02T00:22:50.912Z,87.38
2023-10-02T00:23:50.998Z,87.38
2023-10-02T00:24:51.129Z,87.48
2023-10-02T00:25:51.376Z,87.38
2023-10-02T00:26:51.373Z,87.48
2023-10-02T00:27:51.708Z,87.58
2023-10-02T00:28:50.610Z,87.68
2023-10-02T00:29:51.719Z,87.79
2023-10-02T00:30:50.863Z,88.02
2023-10-02T00:31:51.045Z,88.02
2023-10-02T00:32:51.428Z,88.23
2023-10-02T00:33:51.211Z,88.53
2023-10-02T00:34:51.371Z,88.64
2023-10-02T00:35:50.436Z,88.74
2023-10-02T00:36:51.517Z,88.84
2023-10-02T00:37:52.581Z,88.84
2023-10-02T00:38:51.751Z,88.84
2023-10-02T00:39:51.889Z,88.84
2023-10-02T00:40:51.130Z,88.94
2023-10-02T00:41:51.259Z,89.04
2023-10-02T00:42:50.379Z,89.04
2023-10-02T00:43:51.610Z,89.04
2023-10-02T00:44:51.561Z,88.94
2023-10-02T00:45:50.785Z,88.84
2023-10-02T00:46:51.855Z,88.94
2023-10-02T00:47:51.108Z,88.94
2023-10-02T00:48:51.211Z,89.08
2023-10-02T00:49:50.360Z,89.04
2023-10-02T00:50:50.967Z,88.94
2023-10-02T00:51:50.645Z,89.18
2023-10-02T00:52:50.918Z,89.18
2023-10-02T00:53:51.928Z,89.18
2023-10-02T00:54:51.136Z,89.18
2023-10-02T00:55:50.231Z,89.28
2023-10-02T00:56:51.352Z,89.18
2023-10-02T00:57:51.528Z,89.18
2023-10-02T00:58:51.646Z,89.28
2023-10-02T00:59:51.845Z,89.28
2023-10-02T01:00:51.006Z,89.28
2023-10-02T01:01:50.132Z,89.18
2023-10-02T01:02:50.295Z,89.08
2023-10-02T01:03:50.460Z,88.94
2023-10-02T01:04:51.634Z,88.94
2023-10-02T01:05:52.259Z,88.84
2023-10-02T01:06:50.984Z,88.64
2023-10-02T01:07:50.143Z,88.64
2023-10-02T01:08:50.253Z,88.64
2023-10-02T01:09:50.399Z,88.64
2023-10-02T01:10:51.521Z,88.53
2023-10-02T01:11:50.760Z,88.43
2023-10-02T01:12:51.833Z,88.53
2023-10-02T01:13:50.046Z,88.43
2023-10-02T01:14:50.161Z,88.64
2023-10-02T01:15:50.852Z,88.74
2023-10-02T01:16:50.540Z,88.94
2023-10-02T01:17:50.706Z,89.04
2023-10-02T01:18:50.741Z,89.14
2023-10-02T01:19:49.914Z,89.18
2023-10-02T01:20:50.013Z,89.28
2023-10-02T01:21:50.156Z,89.28
2023-10-02T01:22:50.351Z,89.28
2023-10-02T01:23:50.559Z,89.28
2023-10-02T01:24:50.595Z,89.28
2023-10-02T01:25:49.759Z,89.18
2023-10-02T01:26:49.911Z,89.08
2023-10-02T01:27:50.267Z,88.98
2023-10-02T01:28:50.282Z,89.08
2023-10-02T01:29:50.364Z,89.18
2023-10-02T01:30:50.566Z,89.18
2023-10-02T01:31:49.747Z,89.48
2023-10-02T01:32:49.933Z,89.73
2023-10-02T01:33:49.954Z,89.83
2023-10-02T01:34:50.148Z,90.03
2023-10-02T01:35:50.777Z,90.24
2023-10-02T01:36:50.478Z,90.34
2023-10-02T01:37:49.584Z,90.44
2023-10-02T01:38:49.720Z,90.54
2023-10-02T01:39:49.898Z,90.75
2023-10-02T01:40:50.127Z,91.09
2023-10-02T01:41:50.361Z,91.19
2023-10-02T01:42:50.356Z,91.50
2023-10-02T01:43:50.497Z,91.50
2023-10-02T01:44:49.614Z,91.70
2023-10-02T01:45:49.774Z,91.70
2023-10-02T01:46:49.996Z,91.60
2023-10-02T01:47:50.283Z,91.70
2023-10-02T01:48:50.624Z,91.70
2023-10-02T01:49:50.463Z,91.60
2023-10-02T01:50:49.493Z,91.50
2023-10-02T01:51:49.636Z,91.50
2023-10-02T01:52:52.068Z,91.39
2023-10-02T01:53:50.024Z,91.15
2023-10-02T01:54:50.110Z,91.19
2023-10-02T01:55:50.348Z,91.30
2023-10-02T01:56:49.400Z,91.30
2023-10-02T01:57:49.536Z,91.30
2023-10-02T01:58:49.803Z,91.39
2023-10-02T01:59:50.959Z,91.50
2023-10-02T02:00:50.013Z,91.70
2023-10-02T02:01:50.295Z,91.80
2023-10-02T02:02:49.390Z,91.80
2023-10-02T02:03:49.456Z,91.80
2023-10-02T02:04:49.598Z,91.80
2023-10-02T02:05:49.753Z,91.80
2023-10-02T02:06:49.878Z,91.90
2023-10-02T02:07:50.063Z,91.90
2023-10-02T02:08:50.134Z,91.90
2023-10-02T02:09:49.272Z,91.90
2023-10-02T02:10:49.482Z,91.90
2023-10-02T02:11:49.693Z,91.90
2023-10-02T02:12:49.761Z,91.90
2023-10-02T02:13:49.921Z,91.90
2023-10-02T02:14:50.059Z,91.90
2023-10-02T02:15:49.184Z,91.80
2023-10-02T02:16:49.441Z,91.80
2023-10-02T02:17:49.704Z,91.70
2023-10-02T02:18:49.695Z,91.70
2023-10-02T02:19:50.388Z,91.70
2023-10-02T02:20:48.973Z,91.70
2023-10-02T02:22:11.034Z,91.50
2023-10-02T02:22:49.344Z,91.50
2023-10-02T02:23:49.533Z,91.50
2023-10-02T02:24:49.653Z,91.39
2023-10-02T02:25:49.815Z,91.39
2023-10-02T02:26:49.915Z,91.50
2023-10-02T02:27:49.028Z,91.70
2023-10-02T02:28:49.221Z,91.90
2023-10-02T02:29:49.468Z,92.05
2023-10-02T02:30:49.474Z,92.14
2023-10-02T02:31:49.700Z,92.25
2023-10-02T02:32:49.834Z,92.45
2023-10-02T02:33:48.891Z,92.65
2023-10-02T02:34:49.133Z,92.76
2023-10-02T02:35:49.292Z,92.86
2023-10-02T02:36:49.357Z,92.76
2023-10-02T02:37:49.616Z,92.86
2023-10-02T02:38:49.705Z,92.86
2023-10-02T02:39:48.833Z,92.86
2023-10-02T02:40:48.982Z,92.86
2023-10-02T02:41:49.178Z,92.96
2023-10-02T02:42:49.332Z,92.96
2023-10-02T02:43:49.558Z,92.86
2023-10-02T02:44:49.635Z,92.86
2023-10-02T02:45:48.823Z,92.76
2023-10-02T02:46:49.005Z,92.65
2023-10-02T02:47:49.089Z,92.65
2023-10-02T02:48:49.202Z,92.86
2023-10-02T02:49:49.482Z,92.96
2023-10-02T02:50:49.516Z,92.96
2023-10-02T02:51:48.672Z,92.96
2023-10-02T02:52:48.837Z,93.06
2023-10-02T02:53:49.034Z,92.96
2023-10-02T02:54:49.153Z,92.96
2023-10-02T02:55:49.252Z,92.96
2023-10-02T02:56:49.378Z,93.06
2023-10-02T02:57:48.476Z,93.06
2023-10-02T02:58:48.694Z,93.06
2023-10-02T02:59:48.831Z,92.96
2023-10-02T03:00:48.948Z,93.06
2023-10-02T03:01:49.202Z,93.16
2023-10-02T03:02:49.479Z,93.26
2023-10-02T03:03:48.513Z,93.26
2023-10-02T03:04:48.645Z,93.26
2023-10-02T03:05:48.803Z,93.26
2023-10-02T03:06:48.912Z,93.26
2023-10-02T03:07:49.056Z,93.16
2023-10-02T03:08:49.220Z,93.16
2023-10-02T03:09:49.337Z,93.16
2023-10-02T03:10:48.479Z,93.06
2023-10-02T03:11:48.696Z,93.06
2023-10-02T03:12:48.785Z,93.06
2023-10-02T03:13:48.941Z,92.96
2023-10-02T03:14:49.078Z,92.96
2023-10-02T03:15:49.247Z,93.06
2023-10-02T03:16:48.575Z,93.06
2023-10-02T03:17:48.672Z,92.96
2023-10-02T03:18:48.669Z,92.96
2023-10-02T03:19:48.873Z,92.86
2023-10-02T03:20:49.020Z,92.86
2023-10-02T03:21:49.217Z,92.96
2023-10-02T03:22:48.379Z,92.96
2023-10-02T03:23:48.536Z,92.96
2023-10-02T03:24:48.712Z,93.06
2023-10-02T03:25:49.148Z,92.96
2023-10-02T03:26:49.059Z,92.86
2023-10-02T03:27:48.239Z,92.76
2023-10-02T03:28:48.384Z,92.76
2023-10-02T03:29:48.546Z,92.76
2023-10-02T03:30:48.655Z,92.65
2023-10-02T03:31:48.909Z,92.86
2023-10-02T03:32:48.987Z,92.96
2023-10-02T03:33:48.046Z,93.06
2023-10-02T03:34:48.217Z,93.10
2023-10-02T03:35:48.411Z,93.21
2023-10-02T03:36:48.487Z,93.30
2023-10-02T03:37:48.738Z,93.41
2023-10-02T03:38:48.824Z,93.41
2023-10-02T03:39:47.962Z,93.41
2023-10-02T03:40:48.139Z,93.51
2023-10-02T03:41:48.307Z,93.51
2023-10-02T03:42:48.472Z,93.51
2023-10-02T03:43:48.681Z,93.51
2023-10-02T03:44:48.843Z,93.71
2023-10-02T03:45:47.971Z,93.81
2023-10-02T03:46:48.171Z,93.81
2023-10-02T03:47:48.381Z,93.86
2023-10-02T03:48:48.488Z,93.81
2023-10-02T03:49:48.711Z,93.86
2023-10-02T03:50:47.843Z,93.86
2023-10-02T03:51:48.031Z,93.76
2023-10-02T03:52:48.236Z,93.86
2023-10-02T03:53:48.429Z,93.96
2023-10-02T03:54:48.529Z,94.06
2023-10-02T03:55:48.811Z,94.26
2023-10-02T03:56:47.836Z,94.37
2023-10-02T03:57:48.040Z,94.37
2023-10-02T03:58:48.289Z,94.37
2023-10-02T03:59:48.437Z,94.26
2023-10-02T04:00:48.587Z,94.26
2023-10-02T04:01:47.734Z,94.37
2023-10-02T04:02:47.891Z,94.37
2023-10-02T04:03:48.036Z,94.37
2023-10-02T04:04:48.247Z,94.46
2023-10-02T04:05:48.414Z,94.46
2023-10-02T04:06:48.605Z,94.46
2023-10-02T04:07:47.661Z,94.37
2023-10-02T04:08:47.780Z,94.26
2023-10-02T04:09:47.936Z,94.26
2023-10-02T04:10:48.161Z,94.37
2023-10-02T04:11:48.305Z,94.37
2023-10-02T04:12:48.453Z,94.37
2023-10-02T04:13:47.600Z,94.37
2023-10-02T04:14:47.755Z,94.57
2023-10-02T04:15:47.929Z,94.57
2023-10-02T04:16:48.155Z,94.57
2023-10-02T04:17:48.441Z,94.57
2023-10-02T04:18:47.606Z,94.57
2023-10-02T04:19:47.632Z,94.57
2023-10-02T04:20:47.786Z,94.46
2023-10-02T04:21:47.969Z,94.37
2023-10-02T04:22:48.227Z,94.37
2023-10-02T04:23:48.351Z,94.37
2023-10-02T04:24:47.501Z,94.37
2023-10-02T04:25:47.621Z,94.46
2023-10-02T04:26:47.787Z,94.57
2023-10-02T04:27:47.941Z,94.46
2023-10-02T04:28:48.220Z,94.37
2023-10-02T04:29:47.448Z,94.26
2023-10-02T04:30:47.535Z,94.26
2023-10-02T04:31:47.809Z,94.17
2023-10-02T04:32:47.857Z,94.17
2023-10-02T04:33:48.006Z,94.17
2023-10-02T04:34:48.262Z,94.26
2023-10-02T04:35:47.317Z,94.41
2023-10-02T04:36:47.500Z,94.37
2023-10-02T04:37:47.702Z,94.51
2023-10-02T04:38:47.824Z,94.71
2023-10-02T04:39:48.029Z,94.82
2023-10-02T04:40:47.236Z,95.02
2023-10-02T04:41:47.298Z,95.12
2023-10-02T04:42:47.471Z,95.12
2023-10-02T04:43:47.634Z,95.12
2023-10-02T04:44:47.808Z,95.12
2023-10-02T04:45:48.042Z,95.12
2023-10-02T04:46:47.174Z,95.12
2023-10-02T04:47:47.368Z,95.12
2023-10-02T04:48:47.449Z,95.02
2023-10-02T04:49:47.647Z,94.92
2023-10-02T04:50:47.786Z,94.92
2023-10-02T04:51:48.069Z,94.92
2023-10-02T04:52:47.174Z,94.92
2023-10-02T04:53:47.455Z,94.82
2023-10-02T04:54:47.427Z,94.82
2023-10-02T04:55:47.662Z,94.71
2023-10-02T04:56:47.809Z,94.51
2023-10-02T04:57:47.980Z,94.51
2023-10-02T04:58:47.077Z,94.41
2023-10-02T04:59:47.212Z,94.37
2023-10-02T05:00:47.458Z,94.41
2023-10-02T05:01:47.589Z,94.41
2023-10-02T05:02:47.789Z,94.31
2023-10-02T05:03:47.017Z,94.41
2023-10-02T05:04:47.148Z,94.26
2023-10-02T05:05:47.242Z,94.41
2023-10-02T05:06:47.426Z,94.26
2023-10-02T05:07:47.660Z,94.31
2023-10-02T05:08:47.766Z,94.26
2023-10-02T05:09:46.877Z,94.26
2023-10-02T05:10:47.022Z,94.26
2023-10-02T05:11:47.201Z,94.31
2023-10-02T05:12:47.424Z,94.31
2023-10-02T05:13:47.550Z,94.31
2023-10-02T05:14:46.737Z,94.31
2023-10-02T05:15:46.898Z,94.31
2023-10-02T05:16:47.127Z,94.31
2023-10-02T05:17:47.234Z,94.21
2023-10-02T05:18:47.351Z,94.31
2023-10-02T05:19:47.567Z,94.17
2023-10-02T05:20:46.628Z,94.17
2023-10-02T05:21:46.834Z,94.06
2023-10-02T05:22:47.036Z,94.06
2023-10-02T05:23:47.152Z,93.96
2023-10-02T05:24:47.325Z,93.96
2023-10-02T05:25:47.925Z,93.96
2023-10-02T05:26:46.639Z,93.96
2023-10-02T05:27:46.804Z,93.86
2023-10-02T05:28:46.925Z,93.96
2023-10-02T05:29:47.097Z,94.00
2023-10-02T05:30:47.313Z,93.96
2023-10-02T05:31:47.471Z,93.96
2023-10-02T05:32:46.605Z,94.06
2023-10-02T05:33:46.734Z,93.96
2023-10-02T05:34:46.978Z,93.96
2023-10-02T05:35:47.052Z,94.00
2023-10-02T05:36:47.229Z,94.10
2023-10-02T05:37:47.749Z,94.10
2023-10-02T05:38:46.510Z,94.10
2023-10-02T05:39:46.686Z,94.10
2023-10-02T05:40:46.871Z,94.10
2023-10-02T05:41:47.016Z,94.10
2023-10-02T05:42:47.189Z,94.00
2023-10-02T05:43:46.373Z,94.00
2023-10-02T05:44:46.529Z,93.96
2023-10-02T05:45:46.725Z,93.96
2023-10-02T05:46:46.840Z,93.96
2023-10-02T05:47:47.094Z,93.86
2023-10-02T05:48:47.184Z,93.65
2023-10-02T05:49:46.297Z,93.55
2023-10-02T05:50:46.466Z,93.55
2023-10-02T05:51:46.642Z,93.55
2023-10-02T05:52:46.842Z,93.45
2023-10-02T05:53:46.996Z,93.35
2023-10-02T05:54:46.204Z,93.35
2023-10-02T05:55:46.357Z,93.35
2023-10-02T05:56:46.501Z,93.35
2023-10-02T05:57:48.862Z,93.35
2023-10-02T05:58:46.858Z,93.25
2023-10-02T05:59:47.057Z,93.25
2023-10-02T06:00:46.193Z,93.25
2023-10-02T06:01:46.343Z,93.25
2023-10-02T06:02:46.520Z,93.25
2023-10-02T06:03:46.735Z,93.21
2023-10-02T06:04:46.834Z,93.10
2023-10-02T06:05:59.835Z,93.15
2023-10-02T06:06:47.143Z,93.00
2023-10-02T06:07:46.393Z,93.00
2023-10-02T06:08:46.484Z,93.00
2023-10-02T06:09:48.444Z,92.90
2023-10-02T06:10:46.887Z,92.80
2023-10-02T06:11:46.049Z,92.70
2023-10-02T06:12:46.185Z,92.60
2023-10-02T06:13:46.426Z,92.60
2023-10-02T06:14:46.520Z,92.60
2023-10-02T06:15:46.669Z,92.70
2023-10-02T06:16:46.920Z,92.60
2023-10-02T06:17:46.037Z,92.60
2023-10-02T06:18:46.137Z,92.60
2023-10-02T06:19:46.376Z,92.49
2023-10-02T06:20:46.403Z,92.49
2023-10-02T06:21:46.605Z,92.40
2023-10-02T06:22:46.830Z,92.25
2023-10-02T06:23:45.886Z,92.25
2023-10-02T06:24:46.034Z,92.29
2023-10-02T06:25:46.257Z,92.25
2023-10-02T06:26:46.336Z,92.25
2023-10-02T06:27:46.496Z,92.14
2023-10-02T06:28:46.751Z,92.25
2023-10-02T06:29:45.791Z,92.25
2023-10-02T06:30:45.997Z,92.25
2023-10-02T06:31:46.158Z,92.25
2023-10-02T06:32:46.321Z,92.25
2023-10-02T06:33:46.454Z,92.25
2023-10-02T06:34:46.689Z,92.14
2023-10-02T06:35:45.782Z,92.25
2023-10-02T06:36:45.930Z,92.25
2023-10-02T06:37:46.093Z,92.25
2023-10-02T06:38:46.215Z,92.14
2023-10-02T06:39:46.365Z,92.25
2023-10-02T06:40:46.614Z,92.14
2023-10-02T06:41:45.669Z,92.25
2023-10-02T06:42:46.788Z,92.14
2023-10-02T06:43:45.999Z,92.14
2023-10-02T06:44:46.149Z,92.05
2023-10-02T06:45:46.299Z,92.05
2023-10-02T06:46:47.052Z,91.94
2023-10-02T06:47:45.607Z,91.94
2023-10-02T06:48:45.709Z,91.90
2023-10-02T06:49:45.937Z,91.80
2023-10-02T06:50:46.162Z,91.80
2023-10-02T06:51:46.179Z,91.70
2023-10-02T06:52:46.461Z,91.70
2023-10-02T06:53:45.495Z,91.70
2023-10-02T06:54:45.789Z,91.60
2023-10-02T06:55:45.779Z,91.60
2023-10-02T06:56:45.928Z,91.50
2023-10-02T06:57:46.062Z,91.35
2023-10-02T06:58:46.311Z,91.25
2023-10-02T06:59:45.349Z,91.15
2023-10-02T07:00:45.525Z,91.15
2023-10-02T07:01:45.740Z,91.05
2023-10-02T07:02:45.936Z,91.05
2023-10-02T07:03:46.033Z,90.84
2023-10-02T07:04:46.199Z,90.84
2023-10-02T07:05:45.238Z,90.70
2023-10-02T07:06:45.447Z,90.60
2023-10-02T07:07:45.602Z,90.50
2023-10-02T07:08:45.788Z,90.40
2023-10-02T07:09:46.171Z,90.20
2023-10-02T07:10:46.581Z,90.20
2023-10-02T07:11:45.226Z,90.20
2023-10-02T07:12:45.397Z,90.25
2023-10-02T07:13:45.552Z,90.05
2023-10-02T07:14:45.825Z,89.95
2023-10-02T07:15:45.882Z,89.85
2023-10-02T07:16:46.321Z,89.95
2023-10-02T07:17:45.207Z,89.85
2023-10-02T07:18:45.289Z,89.61
2023-10-02T07:19:45.466Z,89.40
2023-10-02T07:20:45.601Z,89.30
2023-10-02T07:21:45.760Z,89.20
2023-10-02T07:22:45.948Z,89.30
2023-10-02T07:23:45.040Z,89.16
2023-10-02T07:24:46.507Z,89.06
2023-10-02T07:25:45.347Z,88.85
2023-10-02T07:26:45.446Z,88.75
2023-10-02T07:27:45.614Z,88.55
2023-10-02T07:28:45.766Z,88.65
2023-10-02T07:29:45.865Z,88.55
2023-10-02T07:30:44.933Z,88.55
2023-10-02T07:31:45.168Z,88.45
2023-10-02T07:32:45.315Z,88.45
2023-10-02T07:33:45.455Z,88.41
2023-10-02T07:34:45.643Z,88.31
2023-10-02T07:35:45.690Z,88.21
2023-10-02T07:36:46.037Z,88.10
2023-10-02T07:37:44.933Z,88.10
2023-10-02T07:38:45.050Z,88.10
2023-10-02T07:39:45.187Z,88.01
2023-10-02T07:40:45.414Z,88.31
2023-10-02T07:41:45.445Z,88.01
2023-10-02T07:42:45.602Z,87.76
2023-10-02T07:43:45.758Z,87.66
2023-10-02T07:44:44.833Z,87.56
2023-10-02T07:45:44.985Z,87.66
2023-10-02T07:46:45.128Z,87.66
2023-10-02T07:47:45.270Z,87.46
2023-10-02T07:48:45.333Z,87.26
2023-10-02T07:49:45.544Z,87.36
2023-10-02T07:50:45.612Z,87.32
2023-10-02T07:51:44.737Z,87.52
2023-10-02T07:52:44.956Z,87.52
2023-10-02T07:53:44.957Z,87.52
2023-10-02T07:54:45.076Z,87.52
2023-10-02T07:55:45.270Z,87.52
2023-10-02T07:56:45.338Z,87.32
2023-10-02T07:57:45.537Z,87.07
2023-10-02T07:58:44.699Z,86.97
2023-10-02T07:59:45.660Z,86.77
2023-10-02T08:00:44.849Z,86.87
2023-10-02T08:01:45.071Z,86.57
2023-10-02T08:02:45.171Z,86.67
2023-10-02T08:03:45.604Z,86.57
2023-10-02T08:04:45.374Z,86.53
2023-10-02T08:05:44.461Z,86.22
2023-10-02T08:06:56.486Z,86.13
2023-10-02T08:07:47.408Z,86.63
2023-10-02T08:08:44.781Z,86.33
2023-10-02T08:09:44.988Z,85.98
2023-10-02T08:10:45.068Z,86.08
2023-10-02T08:11:45.150Z,86.08
2023-10-02T08:12:45.278Z,85.78
2023-10-02T08:13:45.413Z,85.38
2023-10-02T08:14:44.534Z,85.17
2023-10-02T08:15:44.720Z,84.97
2023-10-02T08:16:44.732Z,84.94
2023-10-02T08:17:44.870Z,84.63
2023-10-02T08:18:44.953Z,84.63
2023-10-02T08:19:45.089Z,84.83
2023-10-02T08:20:45.206Z,84.74
2023-10-02T08:21:44.300Z,84.89
2023-10-02T08:22:44.460Z,84.80
2023-10-02T08:23:45.450Z,85.10
2023-10-02T08:24:44.630Z,84.80
2023-10-02T08:25:45.771Z,84.55
2023-10-02T08:26:45.067Z,84.25
2023-10-02T08:27:45.006Z,84.15
2023-10-02T08:28:44.101Z,84.05
2023-10-02T08:29:45.177Z,84.35
2023-10-02T08:30:44.361Z,83.95
2023-10-02T08:31:44.734Z,83.51
2023-10-02T08:32:44.695Z,83.40
2023-10-02T08:33:54.589Z,83.40
2023-10-02T08:34:45.959Z,83.51
2023-10-02T08:35:44.987Z,83.61
2023-10-02T08:36:44.015Z,83.17
2023-10-02T08:37:44.162Z,82.56
2023-10-02T08:38:44.346Z,82.46
2023-10-02T08:39:44.345Z,82.16
2023-10-02T08:40:44.453Z,81.65
2023-10-02T08:41:44.545Z,82.26
2023-10-02T08:42:44.593Z,81.76
2023-10-02T08:43:44.773Z,81.92
2023-10-02T08:44:44.744Z,81.41
2023-10-02T08:45:44.865Z,81.52
2023-10-02T08:46:43.933Z,81.21
2023-10-02T08:47:44.066Z,81.82
2023-10-02T08:48:44.116Z,81.52
2023-10-02T08:49:44.259Z,81.52
2023-10-02T08:50:44.349Z,81.12
2023-10-02T08:51:44.415Z,80.88
2023-10-02T08:52:44.548Z,81.18
2023-10-02T08:53:44.596Z,81.38
2023-10-02T08:54:44.855Z,81.27
2023-10-02T08:55:43.815Z,81.27
2023-10-02T08:56:43.877Z,81.27
2023-10-02T08:57:44.867Z,81.18
2023-10-02T08:58:44.474Z,80.83
2023-10-02T08:59:44.190Z,80.83
2023-10-02T09:00:44.447Z,80.63
2023-10-02T09:01:44.532Z,79.83
2023-10-02T09:02:44.789Z,79.73
2023-10-02T09:03:44.776Z,79.90
2023-10-02T09:04:43.674Z,79.90
2023-10-02T09:05:43.769Z,79.60
2023-10-02T09:06:43.887Z,79.39
2023-10-02T09:07:43.946Z,79.69
2023-10-02T09:08:44.051Z,79.29
2023-10-02T09:09:44.127Z,79.29
2023-10-02T09:10:44.214Z,78.75
2023-10-02T09:11:44.319Z,78.75
2023-10-02T09:12:44.401Z,78.55
2023-10-02T09:13:45.513Z,78.35
2023-10-02T09:14:43.744Z,78.15
2023-10-02T09:15:44.733Z,78.15
2023-10-02T09:16:44.832Z,78.52
2023-10-02T09:17:44.333Z,78.52
2023-10-02T09:18:44.074Z,77.91
2023-10-02T09:19:44.232Z,78.42
2023-10-02T09:20:44.347Z,79.18
2023-10-02T09:21:43.446Z,78.68
2023-10-02T09:22:43.589Z,78.38
2023-10-02T09:23:43.741Z,78.28
2023-10-02T09:24:43.853Z,77.84
2023-10-02T09:25:44.998Z,77.44
2023-10-02T09:26:44.121Z,78.14
2023-10-02T09:27:44.275Z,77.54
2023-10-02T09:28:43.308Z,77.34
2023-10-02T09:29:43.500Z,76.70
2023-10-02T09:30:44.080Z,76.10
2023-10-02T09:31:44.634Z,75.00
2023-10-02T09:32:43.796Z,76.00
2023-10-02T09:34:09.550Z,74.60
2023-10-02T09:35:07.639Z,75.26
2023-10-02T09:36:02.223Z,74.96
2023-10-02T09:37:33.539Z,75.06
2023-10-02T09:38:05.343Z,76.43
2023-10-02T09:38:44.810Z,75.33
2023-10-02T09:39:48.059Z,74.03
2023-10-02T09:40:43.774Z,73.63
2023-10-02T09:41:44.842Z,73.43
2023-10-02T09:42:44.018Z,73.72
2023-10-02T09:43:44.165Z,74.13
2023-10-02T09:44:43.316Z,74.22
2023-10-02T09:45:43.396Z,74.03
2023-10-02T09:46:43.442Z,73.59
2023-10-02T09:47:59.698Z,72.69
2023-10-02T09:48:44.702Z,72.39
2023-10-02T09:49:43.740Z,73.09
2023-10-02T09:50:43.889Z,73.99
2023-10-02T09:51:44.014Z,72.29
2023-10-02T09:52:43.107Z,72.09
2023-10-02T09:53:43.195Z,72.89
2023-10-02T09:54:43.324Z,72.06
2023-10-02T09:55:43.435Z,72.26
2023-10-02T09:56:43.593Z,72.36
2023-10-02T09:57:44.940Z,73.32
2023-10-02T09:58:43.778Z,73.72
2023-10-02T09:59:43.864Z,73.62
2023-10-02T10:00:43.019Z,73.72
2023-10-02T10:01:43.035Z,73.12
2023-10-02T10:02:43.194Z,72.39
2023-10-02T10:03:43.203Z,70.89
2023-10-02T10:04:43.239Z,70.39
2023-10-02T10:05:43.356Z,71.29
2023-10-02T10:06:43.484Z,72.29
2023-10-02T10:07:43.630Z,72.05
2023-10-02T10:08:43.584Z,71.56
2023-10-02T10:09:44.635Z,71.86
2023-10-02T10:10:43.762Z,72.16
2023-10-02T10:11:42.833Z,71.95
2023-10-02T10:12:44.170Z,71.86
2023-10-02T10:13:44.043Z,71.45
2023-10-02T10:14:43.131Z,71.15
2023-10-02T10:15:43.186Z,70.76
2023-10-02T10:16:43.314Z,71.15
2023-10-02T10:17:43.444Z,71.06
2023-10-02T10:18:43.470Z,70.95
2023-10-02T10:19:44.426Z,71.75
2023-10-02T10:20:42.624Z,71.45
2023-10-02T10:21:42.718Z,71.26
2023-10-02T10:22:42.770Z,70.56
2023-10-02T10:23:42.858Z,70.53
2023-10-02T10:24:42.927Z,70.62
2023-10-02T10:25:43.036Z,70.53
2023-10-02T10:26:43.117Z,70.32
2023-10-02T10:27:43.199Z,70.42
2023-10-02T10:28:44.220Z,70.92
2023-10-02T10:29:43.472Z,69.92
2023-10-02T10:30:43.416Z,70.03
2023-10-02T10:31:44.460Z,70.12
2023-10-02T10:32:42.655Z,70.09
2023-10-02T10:33:42.687Z,70.79
2023-10-02T10:34:42.710Z,69.89
2023-10-02T10:35:42.809Z,69.89
2023-10-02T10:36:42.981Z,70.09
2023-10-02T10:37:43.941Z,69.56
2023-10-02T10:38:43.261Z,69.66
2023-10-02T10:39:44.089Z,69.96
2023-10-02T10:40:44.174Z,68.96
2023-10-02T10:41:43.407Z,68.76
2023-10-02T10:42:43.336Z,69.56
2023-10-02T10:43:42.474Z,68.33
2023-10-02T10:44:42.568Z,66.37
2023-10-02T10:45:42.724Z,67.66
2023-10-02T10:46:43.739Z,69.36
2023-10-02T10:47:43.272Z,69.62
2023-10-02T10:48:43.050Z,67.43
2023-10-02T10:49:43.162Z,67.63
2023-10-02T10:50:44.203Z,67.13
2023-10-02T10:51:42.269Z,66.64
2023-10-02T10:52:43.278Z,67.24
2023-10-02T10:53:42.458Z,68.73
2023-10-02T10:54:56.766Z,66.44
2023-10-02T10:55:43.497Z,67.83
2023-10-02T10:56:42.581Z,67.63
2023-10-02T10:57:42.674Z,67.33
2023-10-02T10:58:42.783Z,68.03
2023-10-02T10:59:42.825Z,67.30
2023-10-02T11:00:43.922Z,67.20
2023-10-02T11:01:43.990Z,67.00
2023-10-02T11:02:44.023Z,66.61
2023-10-02T11:03:43.273Z,67.40
2023-10-02T11:04:42.229Z,66.61
2023-10-02T11:05:42.287Z,67.90
2023-10-02T11:06:43.287Z,66.20
2023-10-02T11:07:43.364Z,66.57
2023-10-02T11:08:42.567Z,66.57
2023-10-02T11:09:42.701Z,66.77
2023-10-02T11:10:43.604Z,66.97
2023-10-02T11:11:43.735Z,66.27
2023-10-02T11:12:43.804Z,66.35
2023-10-02T11:13:42.910Z,65.28
2023-10-02T11:14:41.901Z,65.68
2023-10-02T11:15:42.000Z,65.68
2023-10-02T11:16:42.038Z,64.78
2023-10-02T11:17:42.287Z,65.48
2023-10-02T11:18:42.201Z,66.64
2023-10-02T11:19:42.196Z,65.75
2023-10-02T11:20:42.266Z,65.64
2023-10-02T11:21:42.380Z,65.05
2023-10-02T11:22:42.418Z,66.01
2023-10-02T11:23:42.924Z,65.42
2023-10-02T11:24:44.213Z,66.11
2023-10-02T11:25:42.584Z,65.12
2023-10-02T11:26:42.708Z,64.59
2023-10-02T11:27:42.729Z,65.09
2023-10-02T11:28:41.766Z,64.49
2023-10-02T11:29:41.877Z,65.39
2023-10-02T11:30:42.880Z,63.89
2023-10-02T11:31:41.979Z,65.58
2023-10-02T11:32:42.206Z,65.09
2023-10-02T11:33:42.131Z,66.15
2023-10-02T11:34:42.228Z,66.15
2023-10-02T11:35:42.467Z,66.02
2023-10-02T11:36:42.443Z,64.43
2023-10-02T11:37:42.543Z,63.34
2023-10-02T11:38:42.692Z,62.84
2023-10-02T11:39:45.729Z,62.45
2023-10-02T11:40:42.720Z,63.34
2023-10-02T11:41:41.984Z,65.12
2023-10-02T11:42:43.030Z,64.62
2023-10-02T11:43:42.047Z,64.92
2023-10-02T11:44:43.048Z,64.40
2023-10-02T11:45:42.184Z,64.59
2023-10-02T11:46:42.284Z,64.70
2023-10-02T11:47:42.391Z,62.91
2023-10-02T11:48:42.600Z,62.88
2023-10-02T11:49:41.468Z,63.21
2023-10-02T11:50:41.577Z,63.67
2023-10-02T11:51:41.606Z,63.51
2023-10-02T11:52:41.709Z,63.28
2023-10-02T11:53:41.772Z,62.68
2023-10-02T11:54:42.024Z,63.28
2023-10-02T11:55:41.949Z,63.08
2023-10-02T11:56:42.005Z,63.37
2023-10-02T11:57:42.086Z,64.53
2023-10-02T11:58:42.166Z,64.04
2023-10-02T11:59:42.249Z,62.05
2023-10-02T12:00:42.758Z,61.36
2023-10-02T12:01:41.350Z,61.76
2023-10-02T12:02:41.551Z,61.96
2023-10-02T12:03:41.660Z,61.46
2023-10-02T12:04:41.548Z,61.07
2023-10-02T12:05:41.674Z,62.26
2023-10-02T12:06:41.705Z,62.95
2023-10-02T12:07:41.766Z,61.53
2023-10-02T12:08:42.792Z,61.83
2023-10-02T12:09:41.916Z,61.23
2023-10-02T12:10:42.007Z,61.10
2023-10-02T12:11:42.025Z,61.00
2023-10-02T12:12:42.052Z,60.61
2023-10-02T12:13:42.091Z,60.51
2023-10-02T12:14:41.147Z,60.58
2023-10-02T12:15:41.194Z,60.68
2023-10-02T12:16:41.398Z,61.27
2023-10-02T12:17:41.408Z,60.58
2023-10-02T12:18:41.360Z,61.30
2023-10-02T12:19:41.572Z,60.19
2023-10-02T12:20:41.571Z,61.37
2023-10-02T12:21:48.463Z,61.64
2023-10-02T12:22:42.642Z,60.16
2023-10-02T12:23:42.671Z,59.56
2023-10-02T12:24:41.776Z,61.02
2023-10-02T12:25:41.828Z,60.13
2023-10-02T12:26:41.925Z,59.23
2023-10-02T12:27:42.001Z,58.94
2023-10-02T12:28:40.993Z,59.04
2023-10-02T12:29:42.225Z,59.14
2023-10-02T12:30:41.214Z,59.33
2023-10-02T12:31:42.189Z,58.74
2023-10-02T12:32:41.381Z,58.84
2023-10-02T12:33:42.225Z,59.73
2023-10-02T12:34:41.321Z,59.90
2023-10-02T12:35:41.417Z,60.39
2023-10-02T12:36:42.458Z,60.00
2023-10-02T12:37:41.572Z,58.72
2023-10-02T12:38:41.555Z,57.92
2023-10-02T12:39:41.614Z,58.51
2023-10-02T12:40:41.666Z,59.50
2023-10-02T12:41:41.775Z,58.32
2023-10-02T12:42:40.805Z,57.43
2023-10-02T12:43:40.959Z,58.51
2023-10-02T12:44:40.894Z,58.51
2023-10-02T12:45:40.970Z,59.20
2023-10-02T12:46:41.063Z,58.05
2023-10-02T12:47:41.178Z,59.14
2023-10-02T12:48:41.226Z,56.96
2023-10-02T12:49:41.370Z,57.95
2023-10-02T12:50:41.454Z,58.34
2023-10-02T12:51:41.346Z,57.95
2023-10-02T12:52:42.399Z,57.16